sensor_id;sensor_type;location;lat;lon;timestamp;P1;durP1;ratioP1;P2;durP2;ratioP2
70301;SDS011;57706;56.326;43.882;2022-09-09T00:02:04;2.42;;;2.22;;
70301;SDS011;57706;56.326;43.882;2022-09-09T00:13:01;2.65;;;2.20;;
70301;SDS011;57706;56.326;43.882;2022-09-09T00:15:57;2.78;;;2.33;;
70301;SDS011;57706;56.326;43.882;2022-09-09T00:21:06;2.35;;;2.15;;
70301;SDS011;57706;56.326;43.882;2022-09-09T00:23:40;2.28;;;2.08;;
70301;SDS011;57706;56.326;43.882;2022-09-09T00:31:34;2.78;;;2.15;;
70301;SDS011;57706;56.326;43.882;2022-09-09T00:34:13;2.75;;;2.50;;
70301;SDS011;57706;56.326;43.882;2022-09-09T00:36:42;3.33;;;2.30;;
70301;SDS011;57706;56.326;43.882;2022-09-09T00:39:13;2.55;;;2.33;;
70301;SDS011;57706;56.326;43.882;2022-09-09T00:42:10;3.47;;;2.30;;
70301;SDS011;57706;56.326;43.882;2022-09-09T00:44:45;3.17;;;2.13;;
70301;SDS011;57706;56.326;43.882;2022-09-09T00:57:57;3.10;;;2.25;;
70301;SDS011;57706;56.326;43.882;2022-09-09T01:00:25;3.00;;;2.22;;
70301;SDS011;57706;56.326;43.882;2022-09-09T01:02:58;2.58;;;2.20;;
70301;SDS011;57706;56.326;43.882;2022-09-09T01:05:50;2.53;;;2.08;;
70301;SDS011;57706;56.326;43.882;2022-09-09T01:10:53;2.47;;;2.28;;
70301;SDS011;57706;56.326;43.882;2022-09-09T01:13:26;3.05;;;2.00;;
70301;SDS011;57706;56.326;43.882;2022-09-09T01:16:01;2.22;;;2.03;;
70301;SDS011;57706;56.326;43.882;2022-09-09T01:18:33;4.80;;;2.25;;
70301;SDS011;57706;56.326;43.882;2022-09-09T01:27:09;2.10;;;2.00;;
70301;SDS011;57706;56.326;43.882;2022-09-09T01:29:36;2.60;;;1.90;;
70301;SDS011;57706;56.326;43.882;2022-09-09T01:32:50;2.22;;;1.92;;
70301;SDS011;57706;56.326;43.882;2022-09-09T01:35:08;6.70;;;2.50;;
70301;SDS011;57706;56.326;43.882;2022-09-09T01:37:40;3.28;;;2.03;;
70301;SDS011;57706;56.326;43.882;2022-09-09T01:40:07;2.47;;;2.20;;
70301;SDS011;57706;56.326;43.882;2022-09-09T01:42:36;4.20;;;2.30;;
70301;SDS011;57706;56.326;43.882;2022-09-09T01:45:20;2.20;;;2.00;;
70301;SDS011;57706;56.326;43.882;2022-09-09T01:47:47;2.67;;;2.17;;
70301;SDS011;57706;56.326;43.882;2022-09-09T01:50:28;3.13;;;2.08;;
70301;SDS011;57706;56.326;43.882;2022-09-09T01:52:56;2.45;;;1.92;;
70301;SDS011;57706;56.326;43.882;2022-09-09T01:55:33;4.20;;;2.00;;
70301;SDS011;57706;56.326;43.882;2022-09-09T02:04:01;3.17;;;2.00;;
70301;SDS011;57706;56.326;43.882;2022-09-09T02:06:36;4.53;;;2.10;;
70301;SDS011;57706;56.326;43.882;2022-09-09T02:09:15;2.45;;;2.00;;
70301;SDS011;57706;56.326;43.882;2022-09-09T02:11:47;4.15;;;2.20;;
70301;SDS011;57706;56.326;43.882;2022-09-09T02:14:23;4.35;;;1.90;;
70301;SDS011;57706;56.326;43.882;2022-09-09T02:16:57;2.22;;;2.03;;
70301;SDS011;57706;56.326;43.882;2022-09-09T02:19:46;3.35;;;2.10;;
70301;SDS011;57706;56.326;43.882;2022-09-09T02:22:33;2.63;;;2.10;;
70301;SDS011;57706;56.326;43.882;2022-09-09T02:25:02;1.92;;;1.83;;
70301;SDS011;57706;56.326;43.882;2022-09-09T02:27:30;2.03;;;1.92;;
70301;SDS011;57706;56.326;43.882;2022-09-09T02:29:56;3.05;;;2.20;;
70301;SDS011;57706;56.326;43.882;2022-09-09T02:32:46;3.80;;;2.00;;
70301;SDS011;57706;56.326;43.882;2022-09-09T02:35:33;2.75;;;2.10;;
70301;SDS011;57706;56.326;43.882;2022-09-09T02:38:04;2.20;;;2.03;;
70301;SDS011;57706;56.326;43.882;2022-09-09T02:40:52;1.95;;;1.70;;
70301;SDS011;57706;56.326;43.882;2022-09-09T02:43:18;2.22;;;2.05;;
70301;SDS011;57706;56.326;43.882;2022-09-09T02:45:57;2.53;;;2.10;;
70301;SDS011;57706;56.326;43.882;2022-09-09T02:48:50;2.20;;;2.00;;
70301;SDS011;57706;56.326;43.882;2022-09-09T02:51:27;2.35;;;2.15;;
70301;SDS011;57706;56.326;43.882;2022-09-09T02:54:15;4.00;;;2.20;;
70301;SDS011;57706;56.326;43.882;2022-09-09T02:56:49;3.10;;;2.10;;
70301;SDS011;57706;56.326;43.882;2022-09-09T02:59:24;2.95;;;2.10;;
70301;SDS011;57706;56.326;43.882;2022-09-09T03:01:52;2.10;;;1.90;;
70301;SDS011;57706;56.326;43.882;2022-09-09T03:04:19;2.67;;;2.05;;
70301;SDS011;57706;56.326;43.882;2022-09-09T03:06:46;2.20;;;2.00;;
70301;SDS011;57706;56.326;43.882;2022-09-09T03:09:17;3.03;;;2.55;;
70301;SDS011;57706;56.326;43.882;2022-09-09T03:11:43;2.10;;;1.90;;
70301;SDS011;57706;56.326;43.882;2022-09-09T03:14:10;2.60;;;2.20;;
70301;SDS011;57706;56.326;43.882;2022-09-09T03:16:37;2.40;;;2.08;;
70301;SDS011;57706;56.326;43.882;2022-09-09T03:19:03;2.15;;;1.85;;
70301;SDS011;57706;56.326;43.882;2022-09-09T03:21:29;3.30;;;2.08;;
70301;SDS011;57706;56.326;43.882;2022-09-09T03:23:55;3.45;;;1.80;;
70301;SDS011;57706;56.326;43.882;2022-09-09T03:26:21;2.65;;;2.03;;
70301;SDS011;57706;56.326;43.882;2022-09-09T03:28:47;5.15;;;3.22;;
70301;SDS011;57706;56.326;43.882;2022-09-09T03:31:32;3.00;;;2.70;;
70301;SDS011;57706;56.326;43.882;2022-09-09T03:33:58;4.40;;;2.20;;
70301;SDS011;57706;56.326;43.882;2022-09-09T03:36:27;3.72;;;2.70;;
70301;SDS011;57706;56.326;43.882;2022-09-09T03:38:54;2.67;;;2.00;;
70301;SDS011;57706;56.326;43.882;2022-09-09T03:41:21;2.53;;;2.10;;
70301;SDS011;57706;56.326;43.882;2022-09-09T03:43:50;3.25;;;2.05;;
70301;SDS011;57706;56.326;43.882;2022-09-09T03:46:17;3.30;;;2.03;;
70301;SDS011;57706;56.326;43.882;2022-09-09T03:48:44;2.67;;;2.03;;
70301;SDS011;57706;56.326;43.882;2022-09-09T03:51:10;2.72;;;1.95;;
70301;SDS011;57706;56.326;43.882;2022-09-09T03:53:36;2.30;;;2.10;;
70301;SDS011;57706;56.326;43.882;2022-09-09T03:56:04;2.17;;;1.88;;
70301;SDS011;57706;56.326;43.882;2022-09-09T03:58:35;2.58;;;1.80;;
70301;SDS011;57706;56.326;43.882;2022-09-09T04:01:06;4.00;;;1.92;;
70301;SDS011;57706;56.326;43.882;2022-09-09T04:03:40;1.60;;;1.50;;
70301;SDS011;57706;56.326;43.882;2022-09-09T04:06:07;3.05;;;1.80;;
70301;SDS011;57706;56.326;43.882;2022-09-09T04:08:36;1.90;;;1.70;;
70301;SDS011;57706;56.326;43.882;2022-09-09T04:11:04;1.95;;;1.80;;
70301;SDS011;57706;56.326;43.882;2022-09-09T04:13:36;2.17;;;1.83;;
70301;SDS011;57706;56.326;43.882;2022-09-09T04:16:06;1.65;;;1.55;;
70301;SDS011;57706;56.326;43.882;2022-09-09T04:18:36;3.03;;;2.03;;
70301;SDS011;57706;56.326;43.882;2022-09-09T04:21:02;2.75;;;2.00;;
70301;SDS011;57706;56.326;43.882;2022-09-09T04:23:32;3.38;;;1.80;;
70301;SDS011;57706;56.326;43.882;2022-09-09T04:26:00;2.58;;;1.92;;
70301;SDS011;57706;56.326;43.882;2022-09-09T04:28:28;1.95;;;1.63;;
70301;SDS011;57706;56.326;43.882;2022-09-09T04:30:57;4.50;;;1.73;;
70301;SDS011;57706;56.326;43.882;2022-09-09T04:33:30;4.68;;;1.90;;
70301;SDS011;57706;56.326;43.882;2022-09-09T04:35:56;2.13;;;1.77;;
70301;SDS011;57706;56.326;43.882;2022-09-09T04:38:24;4.05;;;1.70;;
70301;SDS011;57706;56.326;43.882;2022-09-09T04:40:51;4.03;;;1.80;;
70301;SDS011;57706;56.326;43.882;2022-09-09T04:43:20;3.58;;;1.80;;
70301;SDS011;57706;56.326;43.882;2022-09-09T04:45:48;2.20;;;1.63;;
70301;SDS011;57706;56.326;43.882;2022-09-09T04:48:15;1.60;;;1.50;;
70301;SDS011;57706;56.326;43.882;2022-09-09T04:50:41;1.88;;;1.40;;
70301;SDS011;57706;56.326;43.882;2022-09-09T04:53:10;1.67;;;1.58;;
70301;SDS011;57706;56.326;43.882;2022-09-09T04:55:37;1.88;;;1.60;;
70301;SDS011;57706;56.326;43.882;2022-09-09T04:58:04;3.10;;;1.40;;
70301;SDS011;57706;56.326;43.882;2022-09-09T05:00:31;3.28;;;1.50;;
70301;SDS011;57706;56.326;43.882;2022-09-09T05:02:57;1.30;;;1.20;;
70301;SDS011;57706;56.326;43.882;2022-09-09T05:05:45;2.30;;;1.20;;
70301;SDS011;57706;56.326;43.882;2022-09-09T05:08:11;1.58;;;1.40;;
70301;SDS011;57706;56.326;43.882;2022-09-09T05:10:37;1.48;;;1.35;;
70301;SDS011;57706;56.326;43.882;2022-09-09T05:13:04;2.10;;;1.30;;
70301;SDS011;57706;56.326;43.882;2022-09-09T05:15:32;1.35;;;1.17;;
70301;SDS011;57706;56.326;43.882;2022-09-09T05:18:00;5.30;;;1.38;;
70301;SDS011;57706;56.326;43.882;2022-09-09T05:22:55;3.50;;;1.00;;
70301;SDS011;57706;56.326;43.882;2022-09-09T05:25:25;1.25;;;1.10;;
70301;SDS011;57706;56.326;43.882;2022-09-09T05:27:53;3.85;;;1.05;;
70301;SDS011;57706;56.326;43.882;2022-09-09T05:30:19;1.63;;;0.82;;
70301;SDS011;57706;56.326;43.882;2022-09-09T05:33:05;2.00;;;1.20;;
70301;SDS011;57706;56.326;43.882;2022-09-09T05:35:32;2.35;;;1.30;;
70301;SDS011;57706;56.326;43.882;2022-09-09T05:37:59;1.75;;;1.05;;
70301;SDS011;57706;56.326;43.882;2022-09-09T05:40:25;1.02;;;0.93;;
70301;SDS011;57706;56.326;43.882;2022-09-09T05:42:52;2.90;;;0.90;;
70301;SDS011;57706;56.326;43.882;2022-09-09T05:45:19;2.03;;;1.70;;
70301;SDS011;57706;56.326;43.882;2022-09-09T05:47:45;0.95;;;0.90;;
70301;SDS011;57706;56.326;43.882;2022-09-09T05:50:18;0.85;;;0.73;;
70301;SDS011;57706;56.326;43.882;2022-09-09T05:52:44;0.95;;;0.80;;
70301;SDS011;57706;56.326;43.882;2022-09-09T05:55:10;1.10;;;0.80;;
70301;SDS011;57706;56.326;43.882;2022-09-09T05:57:36;2.90;;;0.80;;
70301;SDS011;57706;56.326;43.882;2022-09-09T06:00:02;0.80;;;0.80;;
70301;SDS011;57706;56.326;43.882;2022-09-09T06:02:39;2.03;;;0.70;;
70301;SDS011;57706;56.326;43.882;2022-09-09T06:05:24;1.23;;;0.80;;
70301;SDS011;57706;56.326;43.882;2022-09-09T06:07:52;1.02;;;0.85;;
70301;SDS011;57706;56.326;43.882;2022-09-09T06:10:19;4.43;;;1.33;;
70301;SDS011;57706;56.326;43.882;2022-09-09T06:12:45;2.40;;;0.90;;
70301;SDS011;57706;56.326;43.882;2022-09-09T06:15:11;0.63;;;0.63;;
70301;SDS011;57706;56.326;43.882;2022-09-09T06:17:38;2.47;;;1.00;;
70301;SDS011;57706;56.326;43.882;2022-09-09T06:20:04;0.80;;;0.80;;
70301;SDS011;57706;56.326;43.882;2022-09-09T06:22:31;1.10;;;1.00;;
70301;SDS011;57706;56.326;43.882;2022-09-09T06:24:57;2.03;;;1.30;;
70301;SDS011;57706;56.326;43.882;2022-09-09T06:27:23;1.75;;;1.27;;
70301;SDS011;57706;56.326;43.882;2022-09-09T06:29:49;0.60;;;0.60;;
70301;SDS011;57706;56.326;43.882;2022-09-09T06:32:16;0.60;;;0.60;;
70301;SDS011;57706;56.326;43.882;2022-09-09T06:34:43;1.33;;;0.80;;
70301;SDS011;57706;56.326;43.882;2022-09-09T06:37:09;0.98;;;0.82;;
70301;SDS011;57706;56.326;43.882;2022-09-09T06:39:44;4.38;;;0.90;;
70301;SDS011;57706;56.326;43.882;2022-09-09T06:42:10;0.80;;;0.57;;
70301;SDS011;57706;56.326;43.882;2022-09-09T06:44:48;1.70;;;0.80;;
70301;SDS011;57706;56.326;43.882;2022-09-09T06:47:21;0.50;;;0.50;;
70301;SDS011;57706;56.326;43.882;2022-09-09T06:49:48;6.57;;;0.60;;
70301;SDS011;57706;56.326;43.882;2022-09-09T06:52:14;2.50;;;0.60;;
70301;SDS011;57706;56.326;43.882;2022-09-09T06:54:40;1.15;;;0.50;;
70301;SDS011;57706;56.326;43.882;2022-09-09T06:57:06;0.45;;;0.45;;
70301;SDS011;57706;56.326;43.882;2022-09-09T06:59:33;5.22;;;0.68;;
70301;SDS011;57706;56.326;43.882;2022-09-09T07:01:59;0.60;;;0.40;;
70301;SDS011;57706;56.326;43.882;2022-09-09T07:04:27;0.40;;;0.40;;
70301;SDS011;57706;56.326;43.882;2022-09-09T07:06:52;2.38;;;0.60;;
70301;SDS011;57706;56.326;43.882;2022-09-09T07:09:22;3.63;;;0.52;;
70301;SDS011;57706;56.326;43.882;2022-09-09T07:11:51;1.83;;;0.55;;
70301;SDS011;57706;56.326;43.882;2022-09-09T07:14:23;5.32;;;0.75;;
70301;SDS011;57706;56.326;43.882;2022-09-09T07:16:53;0.40;;;0.40;;
70301;SDS011;57706;56.326;43.882;2022-09-09T07:19:19;1.20;;;0.40;;
70301;SDS011;57706;56.326;43.882;2022-09-09T07:21:49;1.02;;;0.60;;
70301;SDS011;57706;56.326;43.882;2022-09-09T07:24:18;1.10;;;0.50;;
70301;SDS011;57706;56.326;43.882;2022-09-09T07:26:45;5.13;;;0.85;;
70301;SDS011;57706;56.326;43.882;2022-09-09T07:29:12;0.73;;;0.60;;
70301;SDS011;57706;56.326;43.882;2022-09-09T07:31:41;2.55;;;0.50;;
70301;SDS011;57706;56.326;43.882;2022-09-09T07:34:11;0.93;;;0.70;;
70301;SDS011;57706;56.326;43.882;2022-09-09T07:36:39;3.30;;;0.77;;
70301;SDS011;57706;56.326;43.882;2022-09-09T07:39:10;3.50;;;0.80;;
70301;SDS011;57706;56.326;43.882;2022-09-09T07:41:56;3.85;;;0.73;;
70301;SDS011;57706;56.326;43.882;2022-09-09T07:44:23;1.35;;;0.73;;
70301;SDS011;57706;56.326;43.882;2022-09-09T07:47:01;2.50;;;0.93;;
70301;SDS011;57706;56.326;43.882;2022-09-09T07:49:33;2.05;;;0.73;;
70301;SDS011;57706;56.326;43.882;2022-09-09T07:52:01;3.70;;;0.60;;
70301;SDS011;57706;56.326;43.882;2022-09-09T07:54:28;3.70;;;0.43;;
70301;SDS011;57706;56.326;43.882;2022-09-09T07:56:54;1.20;;;0.40;;
70301;SDS011;57706;56.326;43.882;2022-09-09T07:59:23;4.30;;;0.57;;
70301;SDS011;57706;56.326;43.882;2022-09-09T08:02:08;0.73;;;0.73;;
70301;SDS011;57706;56.326;43.882;2022-09-09T08:04:35;2.05;;;0.70;;
70301;SDS011;57706;56.326;43.882;2022-09-09T08:07:01;1.83;;;0.70;;
70301;SDS011;57706;56.326;43.882;2022-09-09T08:12:17;1.73;;;0.70;;
70301;SDS011;57706;56.326;43.882;2022-09-09T08:14:44;1.67;;;0.77;;
70301;SDS011;57706;56.326;43.882;2022-09-09T08:17:10;1.48;;;0.60;;
70301;SDS011;57706;56.326;43.882;2022-09-09T08:19:36;2.67;;;0.60;;
70301;SDS011;57706;56.326;43.882;2022-09-09T08:22:06;3.97;;;0.80;;
70301;SDS011;57706;56.326;43.882;2022-09-09T08:24:34;2.20;;;0.80;;
70301;SDS011;57706;56.326;43.882;2022-09-09T08:27:01;1.48;;;0.63;;
70301;SDS011;57706;56.326;43.882;2022-09-09T08:29:27;2.38;;;0.63;;
70301;SDS011;57706;56.326;43.882;2022-09-09T08:31:55;0.85;;;0.52;;
70301;SDS011;57706;56.326;43.882;2022-09-09T08:34:24;1.40;;;0.80;;
70301;SDS011;57706;56.326;43.882;2022-09-09T08:36:53;0.80;;;0.80;;
70301;SDS011;57706;56.326;43.882;2022-09-09T08:39:24;0.90;;;0.57;;
70301;SDS011;57706;56.326;43.882;2022-09-09T08:41:54;1.42;;;0.73;;
70301;SDS011;57706;56.326;43.882;2022-09-09T08:50:34;1.63;;;0.40;;
70301;SDS011;57706;56.326;43.882;2022-09-09T08:56:18;0.50;;;0.50;;
70301;SDS011;57706;56.326;43.882;2022-09-09T08:58:52;1.05;;;1.00;;
70301;SDS011;57706;56.326;43.882;2022-09-09T09:01:41;0.50;;;0.50;;
70301;SDS011;57706;56.326;43.882;2022-09-09T09:12:38;0.68;;;0.50;;
70301;SDS011;57706;56.326;43.882;2022-09-09T09:17:50;0.60;;;0.50;;
70301;SDS011;57706;56.326;43.882;2022-09-09T09:20:18;0.73;;;0.50;;
70301;SDS011;57706;56.326;43.882;2022-09-09T09:23:01;0.35;;;0.35;;
70301;SDS011;57706;56.326;43.882;2022-09-09T09:25:34;0.47;;;0.45;;
70301;SDS011;57706;56.326;43.882;2022-09-09T09:28:15;0.77;;;0.70;;
70301;SDS011;57706;56.326;43.882;2022-09-09T09:36:17;1.38;;;0.40;;
70301;SDS011;57706;56.326;43.882;2022-09-09T09:38:55;1.45;;;0.60;;
70301;SDS011;57706;56.326;43.882;2022-09-09T09:41:37;0.50;;;0.50;;
70301;SDS011;57706;56.326;43.882;2022-09-09T09:44:21;0.50;;;0.47;;
70301;SDS011;57706;56.326;43.882;2022-09-09T09:46:52;3.15;;;0.50;;
70301;SDS011;57706;56.326;43.882;2022-09-09T09:49:18;0.75;;;0.45;;
70301;SDS011;57706;56.326;43.882;2022-09-09T09:51:44;4.88;;;0.68;;
70301;SDS011;57706;56.326;43.882;2022-09-09T09:54:30;3.50;;;0.60;;
70301;SDS011;57706;56.326;43.882;2022-09-09T09:57:10;2.55;;;1.10;;
70301;SDS011;57706;56.326;43.882;2022-09-09T09:59:38;0.95;;;0.73;;
70301;SDS011;57706;56.326;43.882;2022-09-09T10:05:16;1.30;;;0.30;;
70301;SDS011;57706;56.326;43.882;2022-09-09T10:10:34;2.45;;;0.98;;
70301;SDS011;57706;56.326;43.882;2022-09-09T10:13:15;0.40;;;0.40;;
70301;SDS011;57706;56.326;43.882;2022-09-09T10:21:06;1.27;;;0.50;;
70301;SDS011;57706;56.326;43.882;2022-09-09T10:26:35;1.45;;;0.77;;
70301;SDS011;57706;56.326;43.882;2022-09-09T10:34:55;1.20;;;0.50;;
70301;SDS011;57706;56.326;43.882;2022-09-09T10:37:34;5.45;;;0.75;;
70301;SDS011;57706;56.326;43.882;2022-09-09T10:40:06;0.98;;;0.60;;
70301;SDS011;57706;56.326;43.882;2022-09-09T10:42:42;3.53;;;0.75;;
70301;SDS011;57706;56.326;43.882;2022-09-09T10:50:40;0.98;;;0.55;;
70301;SDS011;57706;56.326;43.882;2022-09-09T10:55:53;1.60;;;0.50;;
70301;SDS011;57706;56.326;43.882;2022-09-09T10:58:37;2.03;;;0.45;;
70301;SDS011;57706;56.326;43.882;2022-09-09T11:01:31;2.30;;;0.55;;
70301;SDS011;57706;56.326;43.882;2022-09-09T11:04:10;3.88;;;0.60;;
70301;SDS011;57706;56.326;43.882;2022-09-09T11:06:44;0.50;;;0.50;;
70301;SDS011;57706;56.326;43.882;2022-09-09T11:09:17;5.57;;;0.80;;
70301;SDS011;57706;56.326;43.882;2022-09-09T11:11:54;3.10;;;0.93;;
70301;SDS011;57706;56.326;43.882;2022-09-09T11:14:37;1.02;;;1.02;;
70301;SDS011;57706;56.326;43.882;2022-09-09T11:17:22;1.15;;;1.02;;
70301;SDS011;57706;56.326;43.882;2022-09-09T11:19:52;3.50;;;0.73;;
70301;SDS011;57706;56.326;43.882;2022-09-09T11:24:52;0.95;;;0.95;;
70301;SDS011;57706;56.326;43.882;2022-09-09T11:33:06;1.02;;;0.73;;
70301;SDS011;57706;56.326;43.882;2022-09-09T11:40:59;1.75;;;0.70;;
70301;SDS011;57706;56.326;43.882;2022-09-09T11:43:30;2.25;;;0.93;;
70301;SDS011;57706;56.326;43.882;2022-09-09T11:46:02;0.93;;;0.80;;
70301;SDS011;57706;56.326;43.882;2022-09-09T11:53:29;1.40;;;0.57;;
70301;SDS011;57706;56.326;43.882;2022-09-09T11:56:05;0.90;;;0.90;;
70301;SDS011;57706;56.326;43.882;2022-09-09T11:58:41;0.50;;;0.50;;
70301;SDS011;57706;56.326;43.882;2022-09-09T12:01:29;1.00;;;0.70;;
70301;SDS011;57706;56.326;43.882;2022-09-09T12:06:42;0.82;;;0.80;;
70301;SDS011;57706;56.326;43.882;2022-09-09T12:14:59;0.40;;;0.38;;
70301;SDS011;57706;56.326;43.882;2022-09-09T12:17:30;0.40;;;0.40;;
70301;SDS011;57706;56.326;43.882;2022-09-09T12:33:34;0.70;;;0.43;;
70301;SDS011;57706;56.326;43.882;2022-09-09T12:36:02;0.95;;;0.63;;
70301;SDS011;57706;56.326;43.882;2022-09-09T12:38:37;1.15;;;1.00;;
70301;SDS011;57706;56.326;43.882;2022-09-09T12:41:05;1.83;;;1.08;;
70301;SDS011;57706;56.326;43.882;2022-09-09T12:43:31;2.47;;;1.10;;
70301;SDS011;57706;56.326;43.882;2022-09-09T12:45:58;3.10;;;1.50;;
70301;SDS011;57706;56.326;43.882;2022-09-09T12:48:32;2.05;;;1.20;;
70301;SDS011;57706;56.326;43.882;2022-09-09T12:51:16;2.85;;;1.83;;
70301;SDS011;57706;56.326;43.882;2022-09-09T12:53:46;1.30;;;1.20;;
70301;SDS011;57706;56.326;43.882;2022-09-09T12:56:19;1.52;;;0.90;;
70301;SDS011;57706;56.326;43.882;2022-09-09T12:58:47;3.63;;;1.50;;
70301;SDS011;57706;56.326;43.882;2022-09-09T13:01:29;4.95;;;1.50;;
70301;SDS011;57706;56.326;43.882;2022-09-09T13:03:57;1.52;;;1.00;;
70301;SDS011;57706;56.326;43.882;2022-09-09T13:06:30;2.42;;;1.23;;
70301;SDS011;57706;56.326;43.882;2022-09-09T13:09:15;1.50;;;1.13;;
70301;SDS011;57706;56.326;43.882;2022-09-09T13:11:42;2.67;;;1.10;;
70301;SDS011;57706;56.326;43.882;2022-09-09T13:14:16;1.63;;;1.38;;
70301;SDS011;57706;56.326;43.882;2022-09-09T13:16:55;1.42;;;1.00;;
70301;SDS011;57706;56.326;43.882;2022-09-09T13:19:23;2.55;;;1.73;;
70301;SDS011;57706;56.326;43.882;2022-09-09T13:22:13;1.45;;;1.08;;
70301;SDS011;57706;56.326;43.882;2022-09-09T13:25:25;1.95;;;0.90;;
70301;SDS011;57706;56.326;43.882;2022-09-09T13:28:02;1.23;;;0.90;;
70301;SDS011;57706;56.326;43.882;2022-09-09T13:30:33;1.50;;;1.10;;
70301;SDS011;57706;56.326;43.882;2022-09-09T13:35:35;3.22;;;1.42;;
70301;SDS011;57706;56.326;43.882;2022-09-09T13:38:14;2.25;;;1.25;;
70301;SDS011;57706;56.326;43.882;2022-09-09T13:40:51;2.38;;;1.90;;
70301;SDS011;57706;56.326;43.882;2022-09-09T13:43:21;1.98;;;1.45;;
70301;SDS011;57706;56.326;43.882;2022-09-09T13:46:02;1.23;;;1.10;;
70301;SDS011;57706;56.326;43.882;2022-09-09T13:48:29;2.80;;;1.13;;
70301;SDS011;57706;56.326;43.882;2022-09-09T13:50:58;1.35;;;0.90;;
70301;SDS011;57706;56.326;43.882;2022-09-09T13:53:26;0.90;;;0.90;;
70301;SDS011;57706;56.326;43.882;2022-09-09T13:55:53;2.13;;;1.13;;
70301;SDS011;57706;56.326;43.882;2022-09-09T13:58:19;1.10;;;0.73;;
70301;SDS011;57706;56.326;43.882;2022-09-09T14:00:46;0.63;;;0.60;;
70301;SDS011;57706;56.326;43.882;2022-09-09T14:03:12;2.05;;;0.65;;
70301;SDS011;57706;56.326;43.882;2022-09-09T14:05:39;2.38;;;0.80;;
70301;SDS011;57706;56.326;43.882;2022-09-09T14:08:05;3.38;;;0.88;;
70301;SDS011;57706;56.326;43.882;2022-09-09T14:10:33;4.18;;;1.40;;
70301;SDS011;57706;56.326;43.882;2022-09-09T14:13:02;0.95;;;0.82;;
70301;SDS011;57706;56.326;43.882;2022-09-09T14:15:28;2.15;;;0.73;;
70301;SDS011;57706;56.326;43.882;2022-09-09T14:17:54;0.90;;;0.80;;
70301;SDS011;57706;56.326;43.882;2022-09-09T14:20:20;4.07;;;2.03;;
70301;SDS011;57706;56.326;43.882;2022-09-09T14:22:46;1.85;;;1.20;;
70301;SDS011;57706;56.326;43.882;2022-09-09T14:25:12;1.73;;;1.00;;
70301;SDS011;57706;56.326;43.882;2022-09-09T14:27:40;2.22;;;0.90;;
70301;SDS011;57706;56.326;43.882;2022-09-09T14:30:08;6.18;;;5.25;;
70301;SDS011;57706;56.326;43.882;2022-09-09T14:32:34;3.50;;;1.50;;
70301;SDS011;57706;56.326;43.882;2022-09-09T14:35:00;1.33;;;0.80;;
70301;SDS011;57706;56.326;43.882;2022-09-09T14:37:27;2.05;;;0.90;;
70301;SDS011;57706;56.326;43.882;2022-09-09T14:39:56;5.30;;;1.15;;
70301;SDS011;57706;56.326;43.882;2022-09-09T14:42:22;2.30;;;1.33;;
70301;SDS011;57706;56.326;43.882;2022-09-09T14:44:48;2.47;;;1.20;;
70301;SDS011;57706;56.326;43.882;2022-09-09T14:47:14;3.60;;;2.22;;
70301;SDS011;57706;56.326;43.882;2022-09-09T14:49:40;3.95;;;0.90;;
70301;SDS011;57706;56.326;43.882;2022-09-09T14:52:06;2.50;;;1.17;;
70301;SDS011;57706;56.326;43.882;2022-09-09T14:54:34;2.65;;;1.10;;
70301;SDS011;57706;56.326;43.882;2022-09-09T14:57:00;4.22;;;1.10;;
70301;SDS011;57706;56.326;43.882;2022-09-09T14:59:25;2.85;;;1.20;;
70301;SDS011;57706;56.326;43.882;2022-09-09T15:01:52;1.63;;;1.10;;
70301;SDS011;57706;56.326;43.882;2022-09-09T15:04:18;6.10;;;3.58;;
70301;SDS011;57706;56.326;43.882;2022-09-09T15:06:45;4.13;;;2.05;;
70301;SDS011;57706;56.326;43.882;2022-09-09T15:09:14;3.13;;;1.40;;
70301;SDS011;57706;56.326;43.882;2022-09-09T15:11:40;3.85;;;1.25;;
70301;SDS011;57706;56.326;43.882;2022-09-09T15:14:07;3.75;;;2.30;;
70301;SDS011;57706;56.326;43.882;2022-09-09T15:16:34;5.28;;;2.55;;
70301;SDS011;57706;56.326;43.882;2022-09-09T15:19:01;3.65;;;1.88;;
70301;SDS011;57706;56.326;43.882;2022-09-09T15:21:31;1.60;;;1.30;;
70301;SDS011;57706;56.326;43.882;2022-09-09T15:24:17;4.72;;;1.50;;
70301;SDS011;57706;56.326;43.882;2022-09-09T15:26:43;5.55;;;2.00;;
70301;SDS011;57706;56.326;43.882;2022-09-09T15:29:09;4.00;;;2.38;;
70301;SDS011;57706;56.326;43.882;2022-09-09T15:31:35;6.05;;;2.00;;
70301;SDS011;57706;56.326;43.882;2022-09-09T15:34:02;5.07;;;2.40;;
70301;SDS011;57706;56.326;43.882;2022-09-09T15:36:30;5.68;;;2.90;;
70301;SDS011;57706;56.326;43.882;2022-09-09T15:38:58;5.97;;;3.70;;
70301;SDS011;57706;56.326;43.882;2022-09-09T15:41:24;5.88;;;2.90;;
70301;SDS011;57706;56.326;43.882;2022-09-09T15:43:52;8.32;;;2.22;;
70301;SDS011;57706;56.326;43.882;2022-09-09T15:46:23;7.30;;;2.00;;
70301;SDS011;57706;56.326;43.882;2022-09-09T15:51:31;10.63;;;2.50;;
70301;SDS011;57706;56.326;43.882;2022-09-09T15:53:57;4.75;;;1.83;;
70301;SDS011;57706;56.326;43.882;2022-09-09T15:56:27;3.88;;;2.30;;
70301;SDS011;57706;56.326;43.882;2022-09-09T15:59:01;5.00;;;3.30;;
70301;SDS011;57706;56.326;43.882;2022-09-09T16:01:30;8.93;;;2.80;;
70301;SDS011;57706;56.326;43.882;2022-09-09T16:03:57;6.43;;;2.50;;
70301;SDS011;57706;56.326;43.882;2022-09-09T16:06:24;4.22;;;2.80;;
70301;SDS011;57706;56.326;43.882;2022-09-09T16:08:52;7.05;;;2.70;;
70301;SDS011;57706;56.326;43.882;2022-09-09T16:11:29;5.60;;;3.50;;
70301;SDS011;57706;56.326;43.882;2022-09-09T16:13:57;7.43;;;3.08;;
70301;SDS011;57706;56.326;43.882;2022-09-09T16:16:25;4.57;;;3.00;;
70301;SDS011;57706;56.326;43.882;2022-09-09T16:18:54;4.50;;;3.30;;
70301;SDS011;57706;56.326;43.882;2022-09-09T16:21:22;6.10;;;3.40;;
70301;SDS011;57706;56.326;43.882;2022-09-09T16:23:50;6.82;;;2.97;;
70301;SDS011;57706;56.326;43.882;2022-09-09T16:26:18;7.40;;;2.78;;
70301;SDS011;57706;56.326;43.882;2022-09-09T16:28:45;5.63;;;2.67;;
70301;SDS011;57706;56.326;43.882;2022-09-09T16:31:13;4.85;;;2.53;;
70301;SDS011;57706;56.326;43.882;2022-09-09T16:33:42;5.75;;;3.00;;
70301;SDS011;57706;56.326;43.882;2022-09-09T16:36:09;6.32;;;3.50;;
70301;SDS011;57706;56.326;43.882;2022-09-09T16:38:40;7.55;;;3.70;;
70301;SDS011;57706;56.326;43.882;2022-09-09T16:41:26;5.18;;;2.15;;
70301;SDS011;57706;56.326;43.882;2022-09-09T16:43:57;5.80;;;2.20;;
70301;SDS011;57706;56.326;43.882;2022-09-09T16:46:25;3.90;;;2.10;;
70301;SDS011;57706;56.326;43.882;2022-09-09T16:48:53;3.70;;;1.90;;
70301;SDS011;57706;56.326;43.882;2022-09-09T16:51:22;3.53;;;2.20;;
70301;SDS011;57706;56.326;43.882;2022-09-09T16:53:50;3.78;;;1.95;;
70301;SDS011;57706;56.326;43.882;2022-09-09T16:56:17;4.97;;;1.80;;
70301;SDS011;57706;56.326;43.882;2022-09-09T16:58:53;4.57;;;2.20;;
70301;SDS011;57706;56.326;43.882;2022-09-09T17:01:25;7.15;;;2.10;;
70301;SDS011;57706;56.326;43.882;2022-09-09T17:03:56;4.15;;;2.28;;
70301;SDS011;57706;56.326;43.882;2022-09-09T17:06:23;4.03;;;2.60;;
70301;SDS011;57706;56.326;43.882;2022-09-09T17:08:59;8.73;;;2.78;;
70301;SDS011;57706;56.326;43.882;2022-09-09T17:11:27;19.30;;;7.40;;
70301;SDS011;57706;56.326;43.882;2022-09-09T17:13:55;15.50;;;6.60;;
70301;SDS011;57706;56.326;43.882;2022-09-09T17:16:24;11.93;;;5.15;;
70301;SDS011;57706;56.326;43.882;2022-09-09T17:21:23;15.63;;;5.15;;
70301;SDS011;57706;56.326;43.882;2022-09-09T17:23:50;6.15;;;3.03;;
70301;SDS011;57706;56.326;43.882;2022-09-09T17:26:18;7.78;;;2.80;;